createdAt,value
2022-12-28T00:01:54.658Z,1.10
2022-12-28T00:04:22.882Z,1.10
2022-12-28T00:06:53.870Z,1.10
2022-12-28T00:09:21.825Z,1.10
2022-12-28T00:11:51.550Z,1.00
2022-12-28T00:14:19.809Z,1.00
2022-12-28T00:16:49.254Z,0.90
2022-12-28T00:19:18.448Z,0.80
2022-12-28T00:21:47.793Z,0.80
2022-12-28T00:24:20.022Z,0.80
2022-12-28T00:26:48.361Z,0.80
2022-12-28T00:29:16.350Z,0.70
2022-12-28T00:31:45.669Z,0.80
2022-12-28T00:34:16.669Z,0.80
2022-12-28T00:37:09.695Z,0.80
2022-12-28T00:39:32.565Z,0.80
2022-12-28T00:42:00.755Z,0.80
2022-12-28T00:44:29.861Z,0.80
2022-12-28T00:47:01.044Z,0.70
2022-12-28T00:49:32.933Z,0.70
2022-12-28T00:52:01.217Z,0.70
2022-12-28T00:54:29.495Z,0.70
2022-12-28T00:56:57.591Z,0.60
2022-12-28T00:59:25.859Z,0.60
2022-12-28T01:01:54.457Z,0.60
2022-12-28T01:04:22.921Z,0.60
2022-12-28T01:06:52.197Z,0.60
2022-12-28T01:09:20.155Z,0.60
2022-12-28T01:11:48.141Z,0.60
2022-12-28T01:14:16.109Z,0.50
2022-12-28T01:16:47.846Z,0.60
2022-12-28T01:19:19.746Z,0.50
2022-12-28T01:21:50.359Z,0.60
2022-12-28T01:24:19.774Z,0.60
2022-12-28T01:26:47.781Z,0.60
2022-12-28T01:29:15.916Z,0.50
2022-12-28T01:31:44.015Z,0.60
2022-12-28T01:34:15.028Z,0.50
2022-12-28T01:36:43.082Z,0.50
2022-12-28T01:39:13.216Z,0.50
2022-12-28T01:41:43.444Z,0.60
2022-12-28T01:44:50.043Z,0.60
2022-12-28T01:47:25.007Z,0.60
2022-12-28T01:49:59.887Z,0.60
2022-12-28T01:52:33.595Z,0.60
2022-12-28T01:55:09.618Z,0.50
2022-12-28T01:57:43.457Z,0.50
2022-12-28T02:00:13.954Z,0.50
2022-12-28T02:02:51.883Z,0.50
2022-12-28T02:05:22.691Z,0.60
2022-12-28T02:07:57.263Z,0.50
2022-12-28T02:10:40.456Z,0.60
2022-12-28T02:13:15.295Z,0.60
2022-12-28T02:15:44.458Z,0.50
2022-12-28T02:18:15.579Z,0.50
2022-12-28T02:20:56.157Z,0.50
2022-12-28T02:23:46.136Z,0.50
2022-12-28T02:26:40.282Z,0.50
2022-12-28T02:29:33.955Z,0.40
2022-12-28T02:32:12.103Z,0.40
2022-12-28T02:34:45.496Z,0.40
2022-12-28T02:37:19.972Z,0.50
2022-12-28T02:39:53.910Z,0.50
2022-12-28T02:42:25.085Z,0.50
2022-12-28T02:45:11.863Z,0.50
2022-12-28T02:48:00.593Z,0.50
2022-12-28T02:50:38.791Z,0.50
2022-12-28T02:53:30.671Z,0.60
2022-12-28T02:56:12.320Z,0.60
2022-12-28T02:59:13.723Z,0.60
2022-12-28T03:02:08.835Z,0.60
2022-12-28T03:04:48.474Z,0.60
2022-12-28T03:07:39.750Z,0.60
2022-12-28T03:10:15.727Z,0.70
2022-12-28T03:12:49.112Z,0.60
2022-12-28T03:15:31.687Z,0.60
2022-12-28T03:18:25.591Z,0.70
2022-12-28T03:21:12.314Z,0.70
2022-12-28T03:24:00.675Z,0.70
2022-12-28T03:26:49.094Z,0.70
2022-12-28T03:29:38.902Z,0.70
2022-12-28T03:32:07.899Z,0.70
2022-12-28T03:34:39.208Z,0.60
2022-12-28T03:37:14.987Z,0.60
2022-12-28T03:39:51.666Z,0.60
2022-12-28T03:42:44.313Z,0.60
2022-12-28T03:45:45.948Z,0.60
2022-12-28T03:48:14.121Z,0.60
2022-12-28T03:50:47.221Z,0.70
2022-12-28T03:53:18.282Z,0.70
2022-12-28T03:55:46.948Z,0.70
2022-12-28T03:58:18.719Z,0.70
2022-12-28T04:00:47.075Z,0.70
2022-12-28T04:03:15.437Z,0.70
2022-12-28T04:05:45.812Z,0.70
2022-12-28T04:08:14.055Z,0.70
2022-12-28T04:10:42.128Z,0.70
2022-12-28T04:13:10.539Z,0.80
2022-12-28T04:15:55.581Z,0.80
2022-12-28T04:18:23.856Z,0.90
2022-12-28T04:20:55.618Z,0.90
2022-12-28T04:23:24.013Z,1.00
2022-12-28T04:26:01.081Z,1.00
2022-12-28T04:28:29.754Z,1.00
2022-12-28T04:31:23.453Z,1.00
2022-12-28T04:33:58.802Z,1.00
2022-12-28T04:36:28.634Z,1.00
2022-12-28T04:38:59.053Z,1.00
2022-12-28T04:41:27.384Z,1.00
2022-12-28T04:43:55.753Z,1.00
2022-12-28T04:46:24.084Z,1.00
2022-12-28T04:48:52.446Z,1.00
2022-12-28T04:51:22.550Z,1.00
2022-12-28T04:53:52.872Z,1.10
2022-12-28T04:56:22.744Z,1.10
2022-12-28T04:58:56.980Z,1.20
2022-12-28T05:01:25.616Z,1.20
2022-12-28T05:03:58.096Z,1.30
2022-12-28T05:06:28.257Z,1.40
2022-12-28T05:08:58.471Z,1.40
2022-12-28T05:11:28.636Z,1.40
2022-12-28T05:13:57.084Z,1.50
2022-12-28T05:16:27.481Z,1.50
2022-12-28T05:18:56.448Z,1.60
2022-12-28T05:21:27.207Z,1.60
2022-12-28T05:23:59.416Z,1.60
2022-12-28T05:26:29.757Z,1.70
2022-12-28T05:29:02.272Z,1.70
2022-12-28T05:31:32.769Z,1.80
2022-12-28T05:34:02.765Z,1.80
2022-12-28T05:36:33.699Z,1.70
2022-12-28T05:39:04.201Z,1.70
2022-12-28T05:41:33.142Z,1.70
2022-12-28T05:44:01.676Z,1.80
2022-12-28T05:46:32.302Z,1.80
2022-12-28T05:49:01.183Z,1.90
2022-12-28T05:51:33.803Z,1.80
2022-12-28T05:54:04.965Z,1.90
2022-12-28T05:56:34.014Z,1.80
2022-12-28T05:59:05.198Z,1.80
2022-12-28T06:01:34.992Z,1.80
2022-12-28T06:04:05.000Z,1.80
2022-12-28T06:06:34.718Z,1.90
2022-12-28T06:09:05.129Z,2.00
2022-12-28T06:11:33.714Z,2.00
2022-12-28T06:14:03.681Z,2.10
2022-12-28T06:16:33.285Z,2.10
2022-12-28T06:19:04.967Z,2.10
2022-12-28T06:21:34.450Z,2.10
2022-12-28T06:24:05.614Z,2.10
2022-12-28T06:26:36.171Z,2.10
2022-12-28T06:29:04.502Z,2.20
2022-12-28T06:31:33.923Z,2.30
2022-12-28T06:34:03.452Z,2.40
2022-12-28T06:36:33.953Z,2.40
2022-12-28T06:39:05.208Z,2.40
2022-12-28T06:41:35.138Z,2.50
2022-12-28T06:44:04.735Z,2.60
2022-12-28T06:46:34.890Z,2.60
2022-12-28T06:49:02.826Z,2.60
2022-12-28T06:51:36.085Z,2.60
2022-12-28T06:54:05.456Z,2.70
2022-12-28T06:56:35.228Z,2.80
2022-12-28T06:59:04.343Z,2.80
2022-12-28T07:01:35.200Z,2.80
2022-12-28T07:04:05.311Z,2.80
2022-12-28T07:06:38.141Z,2.80
2022-12-28T07:09:12.132Z,2.70
2022-12-28T07:11:41.433Z,2.70
2022-12-28T07:14:11.092Z,2.70
2022-12-28T07:19:06.489Z,2.70
2022-12-28T07:21:36.434Z,2.70
2022-12-28T07:24:06.124Z,2.80
2022-12-28T07:26:37.556Z,2.80
2022-12-28T07:29:09.813Z,2.80
2022-12-28T07:31:45.401Z,2.90
2022-12-28T07:34:14.589Z,2.90
2022-12-28T07:36:43.712Z,2.90
2022-12-28T07:39:12.999Z,2.90
2022-12-28T07:41:42.278Z,3.00
2022-12-28T07:44:12.181Z,3.00
2022-12-28T07:46:40.283Z,2.90
2022-12-28T07:49:08.824Z,3.00
2022-12-28T07:51:38.859Z,3.10
2022-12-28T07:54:07.311Z,3.20
2022-12-28T07:59:06.566Z,3.40
2022-12-28T08:01:36.554Z,3.50
2022-12-28T08:04:07.501Z,3.60
2022-12-28T08:06:38.339Z,3.70
2022-12-28T08:09:08.352Z,3.90
2022-12-28T08:11:39.193Z,4.00
2022-12-28T08:14:09.621Z,3.90
2022-12-28T08:16:43.099Z,3.70
2022-12-28T08:19:12.213Z,3.70
2022-12-28T08:21:44.573Z,3.80
2022-12-28T08:24:15.893Z,3.80
2022-12-28T08:26:45.099Z,3.80
2022-12-28T08:29:16.993Z,3.90
2022-12-28T08:31:46.705Z,4.20
2022-12-28T08:34:17.800Z,4.40
2022-12-28T08:36:45.703Z,4.70
2022-12-28T08:39:14.769Z,5.20
2022-12-28T08:41:45.502Z,5.60
2022-12-28T08:44:14.863Z,5.80
2022-12-28T08:46:42.845Z,5.80
2022-12-28T08:49:11.012Z,5.90
2022-12-28T08:51:41.516Z,6.00
2022-12-28T08:54:11.046Z,6.00
2022-12-28T08:56:41.238Z,6.00
2022-12-28T08:59:10.372Z,6.00
2022-12-28T09:01:44.027Z,5.50
2022-12-28T09:04:17.330Z,5.80
2022-12-28T09:06:45.467Z,6.00
2022-12-28T09:09:15.621Z,6.00
2022-12-28T09:11:46.528Z,6.10
2022-12-28T09:14:23.340Z,6.20
2022-12-28T09:16:55.037Z,6.20
2022-12-28T09:19:25.385Z,6.50
2022-12-28T09:21:55.198Z,6.50
2022-12-28T09:24:24.682Z,6.70
2022-12-28T09:26:54.644Z,6.70
2022-12-28T09:29:22.760Z,6.50
2022-12-28T09:31:53.336Z,6.50
2022-12-28T09:34:38.009Z,6.50
2022-12-28T09:37:06.871Z,6.60
2022-12-28T09:39:34.961Z,6.80
2022-12-28T09:42:05.975Z,6.90
2022-12-28T09:44:56.038Z,6.90
2022-12-28T09:47:34.594Z,7.10
2022-12-28T09:50:29.885Z,7.40
2022-12-28T09:53:22.515Z,7.50
2022-12-28T09:55:58.299Z,7.20
2022-12-28T09:58:26.392Z,7.20
2022-12-28T10:00:57.584Z,7.60
2022-12-28T10:03:32.649Z,7.80
2022-12-28T10:06:03.310Z,7.90
2022-12-28T10:08:32.072Z,7.80
2022-12-28T10:11:03.111Z,7.60
2022-12-28T10:13:54.089Z,7.80
2022-12-28T10:16:24.027Z,8.10
2022-12-28T10:18:53.642Z,8.20
2022-12-28T10:21:30.096Z,8.60
2022-12-28T10:26:49.093Z,8.70
2022-12-28T10:29:20.728Z,8.80
2022-12-28T10:32:00.796Z,8.60
2022-12-28T10:34:35.230Z,8.60
2022-12-28T10:37:15.579Z,8.80
2022-12-28T10:39:50.798Z,9.10
2022-12-28T10:42:26.056Z,9.20
2022-12-28T10:44:54.933Z,9.40
2022-12-28T10:47:31.490Z,9.70
2022-12-28T10:52:58.788Z,9.90
2022-12-28T10:55:30.115Z,9.70
2022-12-28T10:58:33.255Z,10.00
2022-12-28T11:01:07.151Z,10.20
2022-12-28T11:03:38.966Z,10.50
2022-12-28T11:06:26.750Z,10.70
2022-12-28T11:09:04.518Z,10.50
2022-12-28T11:11:32.871Z,10.50
2022-12-28T11:14:04.647Z,10.40
2022-12-28T11:16:36.530Z,10.50
2022-12-28T11:19:04.701Z,10.80
2022-12-28T11:21:35.638Z,11.10
2022-12-28T11:24:04.710Z,11.60
2022-12-28T11:26:34.838Z,11.50
2022-12-28T11:29:03.495Z,11.50
2022-12-28T11:31:35.115Z,11.70
2022-12-28T11:34:06.671Z,11.40
2022-12-28T11:36:41.419Z,10.90
2022-12-28T11:39:32.488Z,11.00
2022-12-28T11:44:52.553Z,11.00
2022-12-28T11:47:33.102Z,10.90
2022-12-28T11:50:42.100Z,11.00
2022-12-28T11:53:45.383Z,10.80
2022-12-28T11:56:14.335Z,11.00
2022-12-28T11:58:48.073Z,11.00
2022-12-28T12:01:44.741Z,10.90
2022-12-28T12:04:38.248Z,10.90
2022-12-28T12:07:31.963Z,10.90
2022-12-28T12:10:35.572Z,10.80
2022-12-28T12:13:19.948Z,11.20
2022-12-28T12:15:49.460Z,11.20
2022-12-28T12:18:22.030Z,11.20
2022-12-28T12:21:01.608Z,10.90
2022-12-28T12:23:35.483Z,10.90
2022-12-28T12:26:21.895Z,10.70
2022-12-28T12:28:51.495Z,10.60
2022-12-28T12:32:12.473Z,10.70
2022-12-28T12:34:45.910Z,10.70
2022-12-28T12:37:47.513Z,10.70
2022-12-28T12:40:46.304Z,10.60
2022-12-28T12:43:30.223Z,10.50
2022-12-28T12:46:14.304Z,10.50
2022-12-28T12:49:01.382Z,10.60
2022-12-28T12:51:34.154Z,10.60
2022-12-28T12:54:17.805Z,10.50
2022-12-28T12:56:48.903Z,10.50
2022-12-28T12:59:36.827Z,10.50
2022-12-28T13:02:24.361Z,10.60
2022-12-28T13:04:52.662Z,10.60
2022-12-28T13:07:23.715Z,10.40
2022-12-28T13:09:54.476Z,10.60
2022-12-28T13:12:23.075Z,10.70
2022-12-28T13:14:58.234Z,10.80
2022-12-28T13:17:27.253Z,10.90
2022-12-28T13:20:10.913Z,10.90
2022-12-28T13:22:46.421Z,11.10
2022-12-28T13:25:25.844Z,11.10
2022-12-28T13:27:53.897Z,11.20
2022-12-28T13:30:26.377Z,11.10
2022-12-28T13:32:56.090Z,11.10
2022-12-28T13:35:26.847Z,11.10
2022-12-28T13:38:03.600Z,11.30
2022-12-28T13:40:32.994Z,11.60
2022-12-28T13:43:18.781Z,11.40
2022-12-28T13:45:52.865Z,11.50
2022-12-28T13:48:21.823Z,11.40
2022-12-28T13:50:50.179Z,11.30
2022-12-28T13:53:21.748Z,11.30
2022-12-28T13:55:52.761Z,11.10
2022-12-28T13:58:25.821Z,10.90
2022-12-28T14:00:57.823Z,10.70
2022-12-28T14:03:26.286Z,10.70
2022-12-28T14:05:59.927Z,10.60
2022-12-28T14:08:29.527Z,10.40
2022-12-28T14:10:57.688Z,10.40
2022-12-28T14:13:27.093Z,10.40
2022-12-28T14:15:57.259Z,10.40
2022-12-28T14:18:26.711Z,10.20
2022-12-28T14:20:56.645Z,10.10
2022-12-28T14:23:26.728Z,10.10
2022-12-28T14:25:59.423Z,10.00
2022-12-28T14:28:32.904Z,10.20
2022-12-28T14:31:04.186Z,10.20
2022-12-28T14:33:36.137Z,10.10
2022-12-28T14:36:07.059Z,10.00
2022-12-28T14:38:38.314Z,10.00
2022-12-28T14:41:07.324Z,9.90
2022-12-28T14:43:36.979Z,9.80
2022-12-28T14:46:18.357Z,9.80
2022-12-28T14:48:46.565Z,10.10
2022-12-28T14:51:29.581Z,10.10
2022-12-28T14:54:21.419Z,10.20
2022-12-28T14:57:00.841Z,10.00
2022-12-28T14:59:33.953Z,9.80
2022-12-28T15:02:03.520Z,9.70
2022-12-28T15:04:40.216Z,9.60
2022-12-28T15:07:09.822Z,9.50
2022-12-28T15:09:38.134Z,9.40
2022-12-28T15:12:11.712Z,9.20
2022-12-28T15:14:40.169Z,9.10
2022-12-28T15:17:09.979Z,9.00
2022-12-28T15:23:51.904Z,8.70
2022-12-28T15:26:20.973Z,8.50
2022-12-28T15:28:50.587Z,8.30
2022-12-28T15:31:20.381Z,8.20
2022-12-28T15:33:50.132Z,8.00
2022-12-28T15:36:20.878Z,7.80
2022-12-28T15:38:49.970Z,7.80
2022-12-28T15:41:36.785Z,7.70
2022-12-28T15:44:05.146Z,7.70
2022-12-28T15:46:33.379Z,7.70
2022-12-28T15:49:05.075Z,7.50
2022-12-28T15:51:33.243Z,7.30
2022-12-28T15:54:01.968Z,7.20
2022-12-28T15:56:33.812Z,7.20
2022-12-28T15:59:05.644Z,7.00
2022-12-28T16:01:34.424Z,6.70
2022-12-28T16:04:05.573Z,6.50
2022-12-28T16:06:41.849Z,6.40
2022-12-28T16:09:12.451Z,6.30
2022-12-28T16:11:42.942Z,6.20
2022-12-28T16:14:15.174Z,6.20
2022-12-28T16:16:44.752Z,6.10
2022-12-28T16:19:16.213Z,6.00
2022-12-28T16:21:44.482Z,5.90
2022-12-28T16:24:15.128Z,5.90
2022-12-28T16:26:44.015Z,5.90
2022-12-28T16:29:12.113Z,5.90
2022-12-28T16:31:41.235Z,5.90
2022-12-28T16:34:12.627Z,5.80
2022-12-28T16:36:42.404Z,5.80
2022-12-28T16:39:14.091Z,5.70
2022-12-28T16:41:45.663Z,5.60
2022-12-28T16:44:16.268Z,5.60
2022-12-28T16:46:44.543Z,5.50
2022-12-28T16:49:15.057Z,5.50
2022-12-28T16:51:46.841Z,5.30
2022-12-28T16:54:17.249Z,5.20
2022-12-28T16:56:45.441Z,5.20
2022-12-28T16:59:17.310Z,5.10
2022-12-28T17:01:45.954Z,5.00
2022-12-28T17:04:14.602Z,5.00
2022-12-28T17:06:46.456Z,4.90
2022-12-28T17:09:14.925Z,5.00
2022-12-28T17:11:42.951Z,5.00
2022-12-28T17:14:12.810Z,4.90
2022-12-28T17:16:41.247Z,4.90
2022-12-28T17:19:09.293Z,4.90
2022-12-28T17:21:37.434Z,4.80
2022-12-28T17:24:07.648Z,4.70
2022-12-28T17:26:35.700Z,4.60
2022-12-28T17:29:05.321Z,4.50
2022-12-28T17:31:33.520Z,4.50
2022-12-28T17:34:03.820Z,4.50
2022-12-28T17:36:33.931Z,4.50
2022-12-28T17:39:02.053Z,4.50
2022-12-28T17:41:31.491Z,4.40
2022-12-28T17:44:01.105Z,4.50
2022-12-28T17:46:31.543Z,4.50
2022-12-28T17:49:00.962Z,4.40
2022-12-28T17:51:29.407Z,4.30
2022-12-28T17:53:58.135Z,4.30
2022-12-28T17:56:27.910Z,4.20
2022-12-28T17:58:59.695Z,4.10
2022-12-28T18:01:28.815Z,4.10
2022-12-28T18:03:56.915Z,4.10
2022-12-28T18:06:25.443Z,3.90
2022-12-28T18:08:53.400Z,4.00
2022-12-28T18:11:21.632Z,4.00
2022-12-28T18:13:49.989Z,3.90
2022-12-28T18:16:21.205Z,3.90
2022-12-28T18:18:49.355Z,4.00
2022-12-28T18:21:21.892Z,4.00
2022-12-28T18:23:52.652Z,4.00
2022-12-28T18:26:22.346Z,4.00
2022-12-28T18:28:51.252Z,4.00
2022-12-28T18:31:21.922Z,3.90
2022-12-28T18:33:49.930Z,3.90
2022-12-28T18:36:18.633Z,3.90
2022-12-28T18:38:49.915Z,3.80
2022-12-28T18:41:22.506Z,3.80
2022-12-28T18:43:52.243Z,3.80
2022-12-28T18:46:21.672Z,3.70
2022-12-28T18:48:49.732Z,3.70
2022-12-28T18:51:19.800Z,3.70
2022-12-28T18:53:48.482Z,3.60
2022-12-28T18:56:18.054Z,3.50
2022-12-28T18:58:50.399Z,3.50
2022-12-28T19:02:04.020Z,3.40
2022-12-28T19:04:12.213Z,3.40
2022-12-28T19:06:40.910Z,3.40
2022-12-28T19:09:09.874Z,3.40
2022-12-28T19:11:39.050Z,3.30
2022-12-28T19:14:08.783Z,3.40
2022-12-28T19:16:36.892Z,3.30
2022-12-28T19:19:05.210Z,3.30
2022-12-28T19:21:37.888Z,3.30
2022-12-28T19:24:08.025Z,3.30
2022-12-28T19:26:37.002Z,3.20
2022-12-28T19:29:05.701Z,3.20
2022-12-28T19:31:37.042Z,3.20
2022-12-28T19:34:05.316Z,3.10
2022-12-28T19:36:34.651Z,3.10
2022-12-28T19:39:02.692Z,3.10
2022-12-28T19:41:30.866Z,3.10
2022-12-28T19:43:58.914Z,3.10
2022-12-28T19:46:31.305Z,3.10
2022-12-28T19:49:00.391Z,3.10
2022-12-28T19:51:31.716Z,3.10
2022-12-28T19:54:02.179Z,3.10
2022-12-28T19:56:33.187Z,3.10
2022-12-28T19:59:06.729Z,3.10
2022-12-28T20:01:38.315Z,3.20
2022-12-28T20:04:12.800Z,3.10
2022-12-28T20:06:45.693Z,3.10
2022-12-28T20:09:15.979Z,3.10
2022-12-28T20:11:44.865Z,3.20
2022-12-28T20:14:15.839Z,3.20
2022-12-28T20:16:49.826Z,3.20
2022-12-28T20:19:17.776Z,3.20
2022-12-28T20:21:45.753Z,3.10
2022-12-28T20:24:19.841Z,3.00
2022-12-28T20:26:47.852Z,2.90
2022-12-28T20:29:16.417Z,2.90
2022-12-28T20:31:44.548Z,2.90
2022-12-28T20:34:12.771Z,2.90
2022-12-28T20:36:40.711Z,2.90
2022-12-28T20:39:08.688Z,2.90
2022-12-28T20:41:56.223Z,2.90
2022-12-28T20:44:26.458Z,2.80
2022-12-28T20:46:55.150Z,2.80
2022-12-28T20:49:23.908Z,2.90
2022-12-28T20:51:52.407Z,2.90
2022-12-28T20:54:20.672Z,2.90
2022-12-28T20:56:54.761Z,2.90
2022-12-28T20:59:24.811Z,2.80
2022-12-28T21:01:53.549Z,2.80
2022-12-28T21:04:23.849Z,2.80
2022-12-28T21:06:51.994Z,2.80
2022-12-28T21:09:21.517Z,2.80
2022-12-28T21:11:50.895Z,2.70
2022-12-28T21:14:19.161Z,2.70
2022-12-28T21:16:47.257Z,2.70
2022-12-28T21:19:16.745Z,2.70
2022-12-28T21:21:44.702Z,2.70
2022-12-28T21:24:12.770Z,2.70
2022-12-28T21:26:40.738Z,2.70
2022-12-28T21:29:12.534Z,2.70
2022-12-28T21:31:40.546Z,2.70
2022-12-28T21:34:09.064Z,2.70
2022-12-28T21:36:39.132Z,2.70
2022-12-28T21:39:08.530Z,2.70
2022-12-28T21:41:51.690Z,2.70
2022-12-28T21:44:22.972Z,2.70
2022-12-28T21:46:53.844Z,2.70
2022-12-28T21:49:23.306Z,2.60
2022-12-28T21:51:51.721Z,2.70
2022-12-28T21:54:22.118Z,2.70
2022-12-28T21:56:53.020Z,2.60
2022-12-28T21:59:23.786Z,2.60
2022-12-28T22:02:09.614Z,2.60
2022-12-28T22:05:00.457Z,2.70
2022-12-28T22:07:30.569Z,2.70
2022-12-28T22:10:16.264Z,2.70
2022-12-28T22:12:44.285Z,2.70
2022-12-28T22:15:33.503Z,2.70
2022-12-28T22:18:02.881Z,2.60
2022-12-28T22:20:32.127Z,2.60
2022-12-28T22:23:02.415Z,2.60
2022-12-28T22:25:32.653Z,2.60
2022-12-28T22:28:01.380Z,2.60
2022-12-28T22:30:31.563Z,2.60
2022-12-28T22:32:59.847Z,2.60
2022-12-28T22:35:27.848Z,2.60
2022-12-28T22:37:56.018Z,2.60
2022-12-28T22:40:24.293Z,2.60
2022-12-28T22:42:52.230Z,2.60
2022-12-28T22:45:22.939Z,2.60
2022-12-28T22:47:56.192Z,2.60
2022-12-28T22:50:23.998Z,2.50
2022-12-28T22:52:51.986Z,2.60
2022-12-28T22:55:19.924Z,2.60
2022-12-28T22:57:50.131Z,2.60
2022-12-28T23:00:18.288Z,2.60
2022-12-28T23:02:46.508Z,2.70
2022-12-28T23:05:17.117Z,2.80
2022-12-28T23:07:45.170Z,2.80
2022-12-28T23:10:13.329Z,2.90
2022-12-28T23:12:42.559Z,2.90
2022-12-28T23:15:18.415Z,2.80
2022-12-28T23:17:46.988Z,2.90
2022-12-28T23:20:35.630Z,2.80
2022-12-28T23:23:21.600Z,2.80
2022-12-28T23:26:06.937Z,2.90
2022-12-28T23:28:37.795Z,2.90
2022-12-28T23:31:07.220Z,3.00
2022-12-28T23:33:36.696Z,3.10
2022-12-28T23:36:06.896Z,3.20
2022-12-28T23:38:35.259Z,3.30
2022-12-28T23:41:24.534Z,3.40
2022-12-28T23:43:52.602Z,3.40
2022-12-28T23:46:20.677Z,3.50
2022-12-28T23:48:48.722Z,3.60
2022-12-28T23:51:18.242Z,3.70
2022-12-28T23:53:46.303Z,3.70
2022-12-28T23:56:14.489Z,3.80
2022-12-28T23:58:42.417Z,3.80
